sensor_id;sensor_type;location;lat;lon;timestamp;temperature;humidity
24638;DHT22;12773;50.162;8.548;2022-12-13T00:02:29;-2.70;99.90
24638;DHT22;12773;50.162;8.548;2022-12-13T00:05:17;-2.70;99.90
24638;DHT22;12773;50.162;8.548;2022-12-13T00:08:04;-2.70;99.90
24638;DHT22;12773;50.162;8.548;2022-12-13T00:11:03;-2.70;99.90
24638;DHT22;12773;50.162;8.548;2022-12-13T00:13:51;-2.60;99.90
24638;DHT22;12773;50.162;8.548;2022-12-13T00:16:40;-2.60;99.90
24638;DHT22;12773;50.162;8.548;2022-12-13T00:19:29;-2.50;99.90
24638;DHT22;12773;50.162;8.548;2022-12-13T00:22:16;-2.50;99.90
24638;DHT22;12773;50.162;8.548;2022-12-13T00:25:04;-2.40;99.90
24638;DHT22;12773;50.162;8.548;2022-12-13T00:27:54;-2.40;99.90
24638;DHT22;12773;50.162;8.548;2022-12-13T00:30:42;-2.30;99.90
24638;DHT22;12773;50.162;8.548;2022-12-13T00:33:30;-2.30;99.90
24638;DHT22;12773;50.162;8.548;2022-12-13T00:36:17;-2.30;99.90
24638;DHT22;12773;50.162;8.548;2022-12-13T00:39:05;-2.30;99.90
24638;DHT22;12773;50.162;8.548;2022-12-13T00:41:52;-2.20;99.90
24638;DHT22;12773;50.162;8.548;2022-12-13T00:44:39;-2.20;99.90
24638;DHT22;12773;50.162;8.548;2022-12-13T00:47:27;-2.20;99.90
24638;DHT22;12773;50.162;8.548;2022-12-13T00:50:14;-2.10;99.90
24638;DHT22;12773;50.162;8.548;2022-12-13T00:53:02;-2.10;99.90
24638;DHT22;12773;50.162;8.548;2022-12-13T00:55:49;-2.10;99.90
24638;DHT22;12773;50.162;8.548;2022-12-13T00:58:40;-2.10;99.90
24638;DHT22;12773;50.162;8.548;2022-12-13T01:01:31;-2.10;99.90
24638;DHT22;12773;50.162;8.548;2022-12-13T01:04:19;-2.10;99.90
24638;DHT22;12773;50.162;8.548;2022-12-13T01:07:08;-2.10;99.90
24638;DHT22;12773;50.162;8.548;2022-12-13T01:09:57;-2.20;99.90
24638;DHT22;12773;50.162;8.548;2022-12-13T01:12:45;-2.20;99.90
24638;DHT22;12773;50.162;8.548;2022-12-13T01:15:32;-2.20;99.90
24638;DHT22;12773;50.162;8.548;2022-12-13T01:18:20;-2.20;99.90
24638;DHT22;12773;50.162;8.548;2022-12-13T01:21:14;-2.30;99.90
24638;DHT22;12773;50.162;8.548;2022-12-13T01:24:04;-2.30;99.90
24638;DHT22;12773;50.162;8.548;2022-12-13T01:26:53;-2.30;99.90
24638;DHT22;12773;50.162;8.548;2022-12-13T01:29:42;-2.50;99.90
24638;DHT22;12773;50.162;8.548;2022-12-13T01:32:29;-2.60;99.90
24638;DHT22;12773;50.162;8.548;2022-12-13T01:35:16;-2.60;99.90
24638;DHT22;12773;50.162;8.548;2022-12-13T01:38:04;-2.70;99.90
24638;DHT22;12773;50.162;8.548;2022-12-13T01:40:53;-2.60;99.90
24638;DHT22;12773;50.162;8.548;2022-12-13T01:43:50;-2.60;99.90
24638;DHT22;12773;50.162;8.548;2022-12-13T01:46:41;-2.50;99.90
24638;DHT22;12773;50.162;8.548;2022-12-13T01:49:29;-2.50;99.90
24638;DHT22;12773;50.162;8.548;2022-12-13T01:52:16;-2.40;99.90
24638;DHT22;12773;50.162;8.548;2022-12-13T01:55:06;-2.40;99.90
24638;DHT22;12773;50.162;8.548;2022-12-13T01:57:56;-2.40;99.90
24638;DHT22;12773;50.162;8.548;2022-12-13T02:00:44;-2.50;99.90
24638;DHT22;12773;50.162;8.548;2022-12-13T02:03:33;-2.50;99.90
24638;DHT22;12773;50.162;8.548;2022-12-13T02:06:33;-2.70;99.90
24638;DHT22;12773;50.162;8.548;2022-12-13T02:09:20;-2.80;99.90
24638;DHT22;12773;50.162;8.548;2022-12-13T02:12:12;-2.90;99.90
24638;DHT22;12773;50.162;8.548;2022-12-13T02:15:06;-2.90;99.90
24638;DHT22;12773;50.162;8.548;2022-12-13T02:18:10;-3.00;99.90
24638;DHT22;12773;50.162;8.548;2022-12-13T02:21:18;-3.00;99.90
24638;DHT22;12773;50.162;8.548;2022-12-13T02:24:27;-3.10;99.90
24638;DHT22;12773;50.162;8.548;2022-12-13T02:36:58;-2.90;99.90
24638;DHT22;12773;50.162;8.548;2022-12-13T02:39:50;-2.80;99.90
24638;DHT22;12773;50.162;8.548;2022-12-13T02:42:44;-2.80;99.90
24638;DHT22;12773;50.162;8.548;2022-12-13T02:45:46;-2.60;99.90
24638;DHT22;12773;50.162;8.548;2022-12-13T02:48:37;-2.50;99.90
24638;DHT22;12773;50.162;8.548;2022-12-13T02:51:26;-2.50;99.90
24638;DHT22;12773;50.162;8.548;2022-12-13T02:54:13;-2.40;99.90
24638;DHT22;12773;50.162;8.548;2022-12-13T02:57:01;-2.30;99.90
24638;DHT22;12773;50.162;8.548;2022-12-13T02:59:48;-2.30;99.90
24638;DHT22;12773;50.162;8.548;2022-12-13T03:05:57;-2.30;99.90
24638;DHT22;12773;50.162;8.548;2022-12-13T03:09:28;-2.30;99.90
24638;DHT22;12773;50.162;8.548;2022-12-13T03:15:42;-2.40;99.90
24638;DHT22;12773;50.162;8.548;2022-12-13T03:18:27;-2.30;99.90
24638;DHT22;12773;50.162;8.548;2022-12-13T03:21:15;-2.30;99.90
24638;DHT22;12773;50.162;8.548;2022-12-13T03:24:02;-2.30;99.90
24638;DHT22;12773;50.162;8.548;2022-12-13T03:26:50;-2.30;99.90
24638;DHT22;12773;50.162;8.548;2022-12-13T03:29:38;-2.30;99.90
24638;DHT22;12773;50.162;8.548;2022-12-13T03:32:26;-2.30;99.90
24638;DHT22;12773;50.162;8.548;2022-12-13T03:35:14;-2.40;99.90
24638;DHT22;12773;50.162;8.548;2022-12-13T03:38:02;-2.40;99.90
24638;DHT22;12773;50.162;8.548;2022-12-13T03:40:53;-2.40;99.90
24638;DHT22;12773;50.162;8.548;2022-12-13T03:43:41;-2.30;99.90
24638;DHT22;12773;50.162;8.548;2022-12-13T03:46:29;-2.30;99.90
24638;DHT22;12773;50.162;8.548;2022-12-13T03:49:16;-2.40;99.90
24638;DHT22;12773;50.162;8.548;2022-12-13T03:52:03;-2.40;99.90
24638;DHT22;12773;50.162;8.548;2022-12-13T03:54:51;-2.50;99.90
24638;DHT22;12773;50.162;8.548;2022-12-13T03:57:38;-2.50;99.90
24638;DHT22;12773;50.162;8.548;2022-12-13T04:00:26;-2.50;99.90
24638;DHT22;12773;50.162;8.548;2022-12-13T04:03:13;-2.50;99.90
24638;DHT22;12773;50.162;8.548;2022-12-13T04:06:00;-2.50;99.90
24638;DHT22;12773;50.162;8.548;2022-12-13T04:08:48;-2.40;99.90
24638;DHT22;12773;50.162;8.548;2022-12-13T04:11:36;-2.40;99.90
24638;DHT22;12773;50.162;8.548;2022-12-13T04:14:42;-2.40;99.90
24638;DHT22;12773;50.162;8.548;2022-12-13T04:17:29;-2.50;99.90
24638;DHT22;12773;50.162;8.548;2022-12-13T04:20:17;-2.40;99.90
24638;DHT22;12773;50.162;8.548;2022-12-13T04:23:04;-2.40;99.90
24638;DHT22;12773;50.162;8.548;2022-12-13T04:25:53;-2.40;99.90
24638;DHT22;12773;50.162;8.548;2022-12-13T04:28:40;-2.40;99.90
24638;DHT22;12773;50.162;8.548;2022-12-13T04:31:28;-2.40;99.90
24638;DHT22;12773;50.162;8.548;2022-12-13T04:34:15;-2.30;99.90
24638;DHT22;12773;50.162;8.548;2022-12-13T04:37:03;-2.30;99.90
24638;DHT22;12773;50.162;8.548;2022-12-13T04:39:50;-2.30;99.90
24638;DHT22;12773;50.162;8.548;2022-12-13T04:42:38;-2.30;99.90
24638;DHT22;12773;50.162;8.548;2022-12-13T04:45:26;-2.30;99.90
24638;DHT22;12773;50.162;8.548;2022-12-13T04:48:13;-2.30;99.90
24638;DHT22;12773;50.162;8.548;2022-12-13T04:51:02;-2.30;99.90
24638;DHT22;12773;50.162;8.548;2022-12-13T04:53:50;-2.40;99.90
24638;DHT22;12773;50.162;8.548;2022-12-13T04:56:37;-2.40;99.90
24638;DHT22;12773;50.162;8.548;2022-12-13T04:59:25;-2.40;99.90
24638;DHT22;12773;50.162;8.548;2022-12-13T05:02:12;-2.40;99.90
24638;DHT22;12773;50.162;8.548;2022-12-13T05:05:01;-2.40;99.90
24638;DHT22;12773;50.162;8.548;2022-12-13T05:07:49;-2.40;99.90
24638;DHT22;12773;50.162;8.548;2022-12-13T05:10:37;-2.40;99.90
24638;DHT22;12773;50.162;8.548;2022-12-13T05:13:24;-2.40;99.90
24638;DHT22;12773;50.162;8.548;2022-12-13T05:16:12;-2.40;99.90
24638;DHT22;12773;50.162;8.548;2022-12-13T05:19:00;-2.40;99.90
24638;DHT22;12773;50.162;8.548;2022-12-13T05:21:48;-2.40;99.90
24638;DHT22;12773;50.162;8.548;2022-12-13T05:24:36;-2.50;99.90
24638;DHT22;12773;50.162;8.548;2022-12-13T05:27:23;-2.50;99.90
24638;DHT22;12773;50.162;8.548;2022-12-13T05:30:12;-2.50;99.90
24638;DHT22;12773;50.162;8.548;2022-12-13T05:32:59;-2.60;99.90
24638;DHT22;12773;50.162;8.548;2022-12-13T05:35:47;-2.60;99.90
24638;DHT22;12773;50.162;8.548;2022-12-13T05:38:34;-2.70;99.90
24638;DHT22;12773;50.162;8.548;2022-12-13T05:41:23;-2.80;99.90
24638;DHT22;12773;50.162;8.548;2022-12-13T05:44:10;-2.80;99.90
24638;DHT22;12773;50.162;8.548;2022-12-13T05:46:59;-2.80;99.90
24638;DHT22;12773;50.162;8.548;2022-12-13T05:49:48;-2.80;99.90
24638;DHT22;12773;50.162;8.548;2022-12-13T05:52:35;-2.80;99.90
24638;DHT22;12773;50.162;8.548;2022-12-13T05:55:23;-2.90;99.90
24638;DHT22;12773;50.162;8.548;2022-12-13T05:58:10;-2.80;99.90
24638;DHT22;12773;50.162;8.548;2022-12-13T06:01:04;-2.90;99.90
24638;DHT22;12773;50.162;8.548;2022-12-13T06:03:52;-2.80;99.90
24638;DHT22;12773;50.162;8.548;2022-12-13T06:06:39;-2.80;99.90
24638;DHT22;12773;50.162;8.548;2022-12-13T06:09:27;-2.70;99.90
24638;DHT22;12773;50.162;8.548;2022-12-13T06:12:14;-2.70;99.90
24638;DHT22;12773;50.162;8.548;2022-12-13T06:15:05;-2.70;99.90
24638;DHT22;12773;50.162;8.548;2022-12-13T06:17:54;-2.60;99.90
24638;DHT22;12773;50.162;8.548;2022-12-13T06:20:41;-2.60;99.90
24638;DHT22;12773;50.162;8.548;2022-12-13T06:23:30;-2.70;99.90
24638;DHT22;12773;50.162;8.548;2022-12-13T06:26:18;-2.60;99.90
24638;DHT22;12773;50.162;8.548;2022-12-13T06:29:05;-2.60;99.90
24638;DHT22;12773;50.162;8.548;2022-12-13T06:31:59;-2.70;99.90
24638;DHT22;12773;50.162;8.548;2022-12-13T06:34:43;-2.70;99.90
24638;DHT22;12773;50.162;8.548;2022-12-13T06:37:30;-2.70;99.90
24638;DHT22;12773;50.162;8.548;2022-12-13T06:40:18;-2.70;99.90
24638;DHT22;12773;50.162;8.548;2022-12-13T06:43:06;-2.70;99.90
24638;DHT22;12773;50.162;8.548;2022-12-13T06:45:55;-2.60;99.90
24638;DHT22;12773;50.162;8.548;2022-12-13T06:48:42;-2.60;99.90
24638;DHT22;12773;50.162;8.548;2022-12-13T06:51:32;-2.60;99.90
24638;DHT22;12773;50.162;8.548;2022-12-13T06:54:20;-2.50;99.90
24638;DHT22;12773;50.162;8.548;2022-12-13T06:57:08;-2.50;99.90
24638;DHT22;12773;50.162;8.548;2022-12-13T06:59:56;-2.50;99.90
24638;DHT22;12773;50.162;8.548;2022-12-13T07:02:43;-2.50;99.90
24638;DHT22;12773;50.162;8.548;2022-12-13T07:05:30;-2.50;99.90
24638;DHT22;12773;50.162;8.548;2022-12-13T07:08:17;-2.60;99.90
24638;DHT22;12773;50.162;8.548;2022-12-13T07:11:06;-2.50;99.90
24638;DHT22;12773;50.162;8.548;2022-12-13T07:13:54;-2.60;99.90
24638;DHT22;12773;50.162;8.548;2022-12-13T07:16:42;-2.60;99.90
24638;DHT22;12773;50.162;8.548;2022-12-13T07:19:30;-2.60;99.90
24638;DHT22;12773;50.162;8.548;2022-12-13T07:22:19;-2.60;99.90
24638;DHT22;12773;50.162;8.548;2022-12-13T07:25:07;-2.60;99.90
24638;DHT22;12773;50.162;8.548;2022-12-13T07:28:01;-2.60;99.90
24638;DHT22;12773;50.162;8.548;2022-12-13T07:30:49;-2.50;99.90
24638;DHT22;12773;50.162;8.548;2022-12-13T07:33:36;-2.50;99.90
24638;DHT22;12773;50.162;8.548;2022-12-13T07:36:24;-2.60;99.90
24638;DHT22;12773;50.162;8.548;2022-12-13T07:39:11;-2.50;99.90
24638;DHT22;12773;50.162;8.548;2022-12-13T07:41:58;-2.50;99.90
24638;DHT22;12773;50.162;8.548;2022-12-13T07:44:46;-2.60;99.90
24638;DHT22;12773;50.162;8.548;2022-12-13T07:47:33;-2.60;99.90
24638;DHT22;12773;50.162;8.548;2022-12-13T07:50:21;-2.60;99.90
24638;DHT22;12773;50.162;8.548;2022-12-13T07:53:10;-2.50;99.90
24638;DHT22;12773;50.162;8.548;2022-12-13T07:56:06;-2.50;99.90
24638;DHT22;12773;50.162;8.548;2022-12-13T07:58:53;-2.60;99.90
24638;DHT22;12773;50.162;8.548;2022-12-13T08:01:41;-2.50;99.90
24638;DHT22;12773;50.162;8.548;2022-12-13T08:04:28;-2.60;99.90
24638;DHT22;12773;50.162;8.548;2022-12-13T08:07:17;-2.40;99.90
24638;DHT22;12773;50.162;8.548;2022-12-13T08:10:05;-2.40;99.90
24638;DHT22;12773;50.162;8.548;2022-12-13T08:12:53;-2.40;99.90
24638;DHT22;12773;50.162;8.548;2022-12-13T08:15:40;-2.30;99.90
24638;DHT22;12773;50.162;8.548;2022-12-13T08:18:28;-2.20;99.90
24638;DHT22;12773;50.162;8.548;2022-12-13T08:21:16;-2.20;99.90
24638;DHT22;12773;50.162;8.548;2022-12-13T08:24:05;-2.10;99.90
24638;DHT22;12773;50.162;8.548;2022-12-13T08:26:58;-2.00;99.90
24638;DHT22;12773;50.162;8.548;2022-12-13T08:29:47;-1.90;99.90
24638;DHT22;12773;50.162;8.548;2022-12-13T08:32:35;-1.80;99.90
24638;DHT22;12773;50.162;8.548;2022-12-13T08:35:22;-1.60;99.90
24638;DHT22;12773;50.162;8.548;2022-12-13T08:38:11;-1.50;99.90
24638;DHT22;12773;50.162;8.548;2022-12-13T08:41:00;-1.40;99.90
24638;DHT22;12773;50.162;8.548;2022-12-13T08:43:48;-1.30;99.90
24638;DHT22;12773;50.162;8.548;2022-12-13T08:46:35;-1.20;99.90
24638;DHT22;12773;50.162;8.548;2022-12-13T08:49:22;-1.20;99.90
24638;DHT22;12773;50.162;8.548;2022-12-13T08:52:10;-1.00;99.90
24638;DHT22;12773;50.162;8.548;2022-12-13T08:54:58;-0.90;99.90
24638;DHT22;12773;50.162;8.548;2022-12-13T08:57:45;-0.90;99.90
24638;DHT22;12773;50.162;8.548;2022-12-13T09:00:33;-0.80;99.90
24638;DHT22;12773;50.162;8.548;2022-12-13T09:03:21;-0.70;99.90
24638;DHT22;12773;50.162;8.548;2022-12-13T09:06:11;-0.70;99.90
24638;DHT22;12773;50.162;8.548;2022-12-13T09:08:59;-0.60;99.90
24638;DHT22;12773;50.162;8.548;2022-12-13T09:11:48;-0.50;99.90
24638;DHT22;12773;50.162;8.548;2022-12-13T09:14:38;-0.40;99.90
24638;DHT22;12773;50.162;8.548;2022-12-13T09:17:28;-0.20;99.90
24638;DHT22;12773;50.162;8.548;2022-12-13T09:20:37;-0.20;99.90
24638;DHT22;12773;50.162;8.548;2022-12-13T09:23:27;-0.10;99.90
24638;DHT22;12773;50.162;8.548;2022-12-13T09:26:16;-0.10;99.90
24638;DHT22;12773;50.162;8.548;2022-12-13T09:29:06;-0.20;99.90
24638;DHT22;12773;50.162;8.548;2022-12-13T09:31:54;0.00;99.90
24638;DHT22;12773;50.162;8.548;2022-12-13T09:34:43;0.00;99.90
24638;DHT22;12773;50.162;8.548;2022-12-13T09:37:31;0.10;99.90
24638;DHT22;12773;50.162;8.548;2022-12-13T09:40:21;0.60;99.90
24638;DHT22;12773;50.162;8.548;2022-12-13T09:43:13;1.30;99.90
24638;DHT22;12773;50.162;8.548;2022-12-13T09:46:04;1.70;99.90
24638;DHT22;12773;50.162;8.548;2022-12-13T09:48:54;1.70;99.90
24638;DHT22;12773;50.162;8.548;2022-12-13T09:51:45;1.50;99.90
24638;DHT22;12773;50.162;8.548;2022-12-13T09:54:35;1.50;99.90
24638;DHT22;12773;50.162;8.548;2022-12-13T09:57:28;1.60;99.90
24638;DHT22;12773;50.162;8.548;2022-12-13T10:00:21;1.80;99.90
24638;DHT22;12773;50.162;8.548;2022-12-13T10:03:13;1.70;99.90
24638;DHT22;12773;50.162;8.548;2022-12-13T10:06:45;1.50;99.90
24638;DHT22;12773;50.162;8.548;2022-12-13T10:08:57;1.40;99.90
24638;DHT22;12773;50.162;8.548;2022-12-13T10:11:52;1.20;99.90
24638;DHT22;12773;50.162;8.548;2022-12-13T10:14:45;1.50;99.90
24638;DHT22;12773;50.162;8.548;2022-12-13T10:17:36;1.80;99.90
24638;DHT22;12773;50.162;8.548;2022-12-13T10:20:25;2.30;99.90
24638;DHT22;12773;50.162;8.548;2022-12-13T10:23:14;2.80;99.90
24638;DHT22;12773;50.162;8.548;2022-12-13T10:26:08;3.20;99.90
24638;DHT22;12773;50.162;8.548;2022-12-13T10:29:02;3.20;99.90
24638;DHT22;12773;50.162;8.548;2022-12-13T10:31:52;3.10;99.90
24638;DHT22;12773;50.162;8.548;2022-12-13T10:34:39;2.70;99.90
24638;DHT22;12773;50.162;8.548;2022-12-13T10:37:29;2.70;99.90
24638;DHT22;12773;50.162;8.548;2022-12-13T10:40:37;2.50;99.90
24638;DHT22;12773;50.162;8.548;2022-12-13T10:43:27;3.00;99.90
24638;DHT22;12773;50.162;8.548;2022-12-13T10:46:20;3.00;99.90
24638;DHT22;12773;50.162;8.548;2022-12-13T10:49:26;2.60;99.90
24638;DHT22;12773;50.162;8.548;2022-12-13T10:52:21;2.50;99.90
24638;DHT22;12773;50.162;8.548;2022-12-13T10:55:25;2.50;99.90
24638;DHT22;12773;50.162;8.548;2022-12-13T10:58:17;2.50;99.90
24638;DHT22;12773;50.162;8.548;2022-12-13T11:01:21;2.80;99.90
24638;DHT22;12773;50.162;8.548;2022-12-13T11:04:01;3.30;99.90
24638;DHT22;12773;50.162;8.548;2022-12-13T11:06:48;3.90;99.90
24638;DHT22;12773;50.162;8.548;2022-12-13T11:09:36;4.50;99.90
24638;DHT22;12773;50.162;8.548;2022-12-13T11:12:26;4.50;99.90
24638;DHT22;12773;50.162;8.548;2022-12-13T11:15:20;4.20;99.90
24638;DHT22;12773;50.162;8.548;2022-12-13T11:18:17;4.50;99.90
24638;DHT22;12773;50.162;8.548;2022-12-13T11:21:02;4.40;99.90
24638;DHT22;12773;50.162;8.548;2022-12-13T11:23:50;4.00;99.90
24638;DHT22;12773;50.162;8.548;2022-12-13T11:26:39;3.70;99.90
24638;DHT22;12773;50.162;8.548;2022-12-13T11:36:19;3.40;99.90
24638;DHT22;12773;50.162;8.548;2022-12-13T11:42:30;3.40;99.90
24638;DHT22;12773;50.162;8.548;2022-12-13T11:45:26;3.40;99.90
24638;DHT22;12773;50.162;8.548;2022-12-13T11:48:26;3.60;99.90
24638;DHT22;12773;50.162;8.548;2022-12-13T11:51:16;3.60;99.90
24638;DHT22;12773;50.162;8.548;2022-12-13T11:54:18;3.60;99.90
24638;DHT22;12773;50.162;8.548;2022-12-13T11:56:55;3.50;99.90
24638;DHT22;12773;50.162;8.548;2022-12-13T11:59:53;3.20;99.90
24638;DHT22;12773;50.162;8.548;2022-12-13T12:02:38;3.40;99.90
24638;DHT22;12773;50.162;8.548;2022-12-13T12:05:39;3.50;99.90
24638;DHT22;12773;50.162;8.548;2022-12-13T12:08:42;3.90;99.90
24638;DHT22;12773;50.162;8.548;2022-12-13T12:11:44;4.00;99.90
24638;DHT22;12773;50.162;8.548;2022-12-13T12:14:34;3.70;99.90
24638;DHT22;12773;50.162;8.548;2022-12-13T12:17:23;3.50;99.90
24638;DHT22;12773;50.162;8.548;2022-12-13T12:20:18;3.10;99.90
24638;DHT22;12773;50.162;8.548;2022-12-13T12:23:13;2.90;99.90
24638;DHT22;12773;50.162;8.548;2022-12-13T12:26:09;3.10;99.90
24638;DHT22;12773;50.162;8.548;2022-12-13T12:29:05;3.10;99.90
24638;DHT22;12773;50.162;8.548;2022-12-13T12:34:49;3.00;99.90
24638;DHT22;12773;50.162;8.548;2022-12-13T12:37:51;2.90;99.90
24638;DHT22;12773;50.162;8.548;2022-12-13T12:44:02;2.60;99.90
24638;DHT22;12773;50.162;8.548;2022-12-13T12:47:04;2.60;99.90
24638;DHT22;12773;50.162;8.548;2022-12-13T12:50:17;2.60;99.90
24638;DHT22;12773;50.162;8.548;2022-12-13T12:56:30;3.00;99.90
24638;DHT22;12773;50.162;8.548;2022-12-13T12:59:25;3.00;99.90
24638;DHT22;12773;50.162;8.548;2022-12-13T13:02:17;2.70;99.90
24638;DHT22;12773;50.162;8.548;2022-12-13T13:05:16;2.40;99.90
24638;DHT22;12773;50.162;8.548;2022-12-13T13:08:23;2.40;99.90
24638;DHT22;12773;50.162;8.548;2022-12-13T13:11:19;2.20;99.90
24638;DHT22;12773;50.162;8.548;2022-12-13T13:20:19;2.60;99.90
24638;DHT22;12773;50.162;8.548;2022-12-13T13:23:13;2.70;99.90
24638;DHT22;12773;50.162;8.548;2022-12-13T13:26:02;2.60;99.90
24638;DHT22;12773;50.162;8.548;2022-12-13T13:28:51;2.50;99.90
24638;DHT22;12773;50.162;8.548;2022-12-13T13:41:39;2.10;99.90
24638;DHT22;12773;50.162;8.548;2022-12-13T13:47:35;2.40;99.90
24638;DHT22;12773;50.162;8.548;2022-12-13T13:59:59;2.10;99.90
24638;DHT22;12773;50.162;8.548;2022-12-13T14:03:04;2.00;99.90
24638;DHT22;12773;50.162;8.548;2022-12-13T14:08:58;1.80;99.90
24638;DHT22;12773;50.162;8.548;2022-12-13T14:24:44;1.40;99.90
24638;DHT22;12773;50.162;8.548;2022-12-13T14:30:27;1.30;99.90
24638;DHT22;12773;50.162;8.548;2022-12-13T14:33:22;1.40;99.90
24638;DHT22;12773;50.162;8.548;2022-12-13T14:36:14;1.40;99.90
24638;DHT22;12773;50.162;8.548;2022-12-13T14:39:11;1.40;99.90
24638;DHT22;12773;50.162;8.548;2022-12-13T14:42:00;1.40;99.90
24638;DHT22;12773;50.162;8.548;2022-12-13T14:44:49;1.40;99.90
24638;DHT22;12773;50.162;8.548;2022-12-13T14:47:41;1.40;99.90
24638;DHT22;12773;50.162;8.548;2022-12-13T14:50:34;1.30;99.90
24638;DHT22;12773;50.162;8.548;2022-12-13T14:53:36;1.30;99.90
24638;DHT22;12773;50.162;8.548;2022-12-13T14:56:26;1.20;99.90
24638;DHT22;12773;50.162;8.548;2022-12-13T14:59:14;1.20;99.90
24638;DHT22;12773;50.162;8.548;2022-12-13T15:02:04;1.10;99.90
24638;DHT22;12773;50.162;8.548;2022-12-13T15:04:53;1.10;99.90
24638;DHT22;12773;50.162;8.548;2022-12-13T15:07:41;1.10;99.90
24638;DHT22;12773;50.162;8.548;2022-12-13T15:10:37;1.10;99.90
24638;DHT22;12773;50.162;8.548;2022-12-13T15:13:34;1.00;99.90
24638;DHT22;12773;50.162;8.548;2022-12-13T15:16:24;1.00;99.90
24638;DHT22;12773;50.162;8.548;2022-12-13T15:19:21;0.90;99.90
24638;DHT22;12773;50.162;8.548;2022-12-13T15:22:13;0.90;99.90
24638;DHT22;12773;50.162;8.548;2022-12-13T15:25:01;0.90;99.90
24638;DHT22;12773;50.162;8.548;2022-12-13T15:27:50;0.90;99.90
24638;DHT22;12773;50.162;8.548;2022-12-13T15:30:38;0.80;99.90
24638;DHT22;12773;50.162;8.548;2022-12-13T15:33:27;0.80;99.90
24638;DHT22;12773;50.162;8.548;2022-12-13T15:36:24;0.80;99.90
24638;DHT22;12773;50.162;8.548;2022-12-13T15:39:12;0.70;99.90
24638;DHT22;12773;50.162;8.548;2022-12-13T15:42:01;0.80;99.90
24638;DHT22;12773;50.162;8.548;2022-12-13T15:44:57;0.80;99.90
24638;DHT22;12773;50.162;8.548;2022-12-13T15:47:46;0.70;99.90
24638;DHT22;12773;50.162;8.548;2022-12-13T15:50:38;0.70;99.90
24638;DHT22;12773;50.162;8.548;2022-12-13T15:53:27;0.70;99.90
24638;DHT22;12773;50.162;8.548;2022-12-13T15:56:30;0.70;99.90
24638;DHT22;12773;50.162;8.548;2022-12-13T15:59:30;0.60;99.90
24638;DHT22;12773;50.162;8.548;2022-12-13T16:02:20;0.70;99.90
24638;DHT22;12773;50.162;8.548;2022-12-13T16:05:16;0.70;99.90
24638;DHT22;12773;50.162;8.548;2022-12-13T16:08:03;0.60;99.90
24638;DHT22;12773;50.162;8.548;2022-12-13T16:10:53;0.70;99.90
24638;DHT22;12773;50.162;8.548;2022-12-13T16:13:41;0.60;99.90
24638;DHT22;12773;50.162;8.548;2022-12-13T16:16:30;0.50;99.90
24638;DHT22;12773;50.162;8.548;2022-12-13T16:19:18;0.60;99.90
24638;DHT22;12773;50.162;8.548;2022-12-13T16:22:06;0.50;99.90
24638;DHT22;12773;50.162;8.548;2022-12-13T16:24:54;0.50;99.90
24638;DHT22;12773;50.162;8.548;2022-12-13T16:27:42;0.50;99.90
24638;DHT22;12773;50.162;8.548;2022-12-13T16:33:38;0.50;99.90
24638;DHT22;12773;50.162;8.548;2022-12-13T16:36:25;0.50;99.90
24638;DHT22;12773;50.162;8.548;2022-12-13T16:39:13;0.50;99.90
24638;DHT22;12773;50.162;8.548;2022-12-13T16:42:01;0.50;99.90
24638;DHT22;12773;50.162;8.548;2022-12-13T16:44:50;0.40;99.90
24638;DHT22;12773;50.162;8.548;2022-12-13T16:47:38;0.40;99.90
24638;DHT22;12773;50.162;8.548;2022-12-13T16:50:28;0.50;99.90
24638;DHT22;12773;50.162;8.548;2022-12-13T16:53:15;0.60;99.90
24638;DHT22;12773;50.162;8.548;2022-12-13T16:56:04;0.50;99.90
24638;DHT22;12773;50.162;8.548;2022-12-13T16:58:51;0.50;99.90
24638;DHT22;12773;50.162;8.548;2022-12-13T17:01:39;0.60;99.90
24638;DHT22;12773;50.162;8.548;2022-12-13T17:04:27;0.50;99.90
24638;DHT22;12773;50.162;8.548;2022-12-13T17:07:14;0.50;99.90
24638;DHT22;12773;50.162;8.548;2022-12-13T17:10:02;0.40;99.90
24638;DHT22;12773;50.162;8.548;2022-12-13T17:12:49;0.40;99.90
24638;DHT22;12773;50.162;8.548;2022-12-13T17:15:37;0.40;99.90
24638;DHT22;12773;50.162;8.548;2022-12-13T17:18:26;0.30;99.90
24638;DHT22;12773;50.162;8.548;2022-12-13T17:21:14;0.10;99.90
24638;DHT22;12773;50.162;8.548;2022-12-13T17:24:01;0.00;99.90
24638;DHT22;12773;50.162;8.548;2022-12-13T17:26:48;0.00;99.90
24638;DHT22;12773;50.162;8.548;2022-12-13T17:29:38;-0.10;99.90
24638;DHT22;12773;50.162;8.548;2022-12-13T17:32:25;-0.10;99.90
24638;DHT22;12773;50.162;8.548;2022-12-13T17:35:13;-0.10;99.90
24638;DHT22;12773;50.162;8.548;2022-12-13T17:38:05;-0.10;99.90
24638;DHT22;12773;50.162;8.548;2022-12-13T17:41:00;-0.10;99.90
24638;DHT22;12773;50.162;8.548;2022-12-13T17:43:47;0.00;99.90
24638;DHT22;12773;50.162;8.548;2022-12-13T17:46:35;0.10;99.90
24638;DHT22;12773;50.162;8.548;2022-12-13T17:49:23;0.10;99.90
24638;DHT22;12773;50.162;8.548;2022-12-13T17:52:10;0.00;99.90
24638;DHT22;12773;50.162;8.548;2022-12-13T17:54:58;0.00;99.90
24638;DHT22;12773;50.162;8.548;2022-12-13T17:57:46;0.00;99.90
24638;DHT22;12773;50.162;8.548;2022-12-13T18:00:36;0.00;99.90
24638;DHT22;12773;50.162;8.548;2022-12-13T18:03:23;0.00;99.90
24638;DHT22;12773;50.162;8.548;2022-12-13T18:06:11;0.00;99.90
24638;DHT22;12773;50.162;8.548;2022-12-13T18:09:00;0.00;99.90
24638;DHT22;12773;50.162;8.548;2022-12-13T18:11:47;0.00;99.90
24638;DHT22;12773;50.162;8.548;2022-12-13T18:14:36;0.00;99.90
24638;DHT22;12773;50.162;8.548;2022-12-13T18:17:23;-0.10;99.90
24638;DHT22;12773;50.162;8.548;2022-12-13T18:20:12;-0.10;99.90
24638;DHT22;12773;50.162;8.548;2022-12-13T18:23:00;-0.10;99.90
24638;DHT22;12773;50.162;8.548;2022-12-13T18:25:47;-0.10;99.90
24638;DHT22;12773;50.162;8.548;2022-12-13T18:28:36;0.00;99.90
24638;DHT22;12773;50.162;8.548;2022-12-13T18:31:24;0.10;99.90
24638;DHT22;12773;50.162;8.548;2022-12-13T18:34:13;0.10;99.90
24638;DHT22;12773;50.162;8.548;2022-12-13T18:37:00;0.10;99.90
24638;DHT22;12773;50.162;8.548;2022-12-13T18:39:48;0.10;99.90
24638;DHT22;12773;50.162;8.548;2022-12-13T18:42:37;-0.10;99.90
24638;DHT22;12773;50.162;8.548;2022-12-13T18:45:24;-0.10;99.90
24638;DHT22;12773;50.162;8.548;2022-12-13T18:48:11;-0.20;99.90
24638;DHT22;12773;50.162;8.548;2022-12-13T18:51:00;-0.30;99.90
24638;DHT22;12773;50.162;8.548;2022-12-13T18:53:49;-0.40;99.90
24638;DHT22;12773;50.162;8.548;2022-12-13T18:56:37;-0.40;99.90
24638;DHT22;12773;50.162;8.548;2022-12-13T18:59:25;-0.40;99.90
24638;DHT22;12773;50.162;8.548;2022-12-13T19:02:14;-0.30;99.90
24638;DHT22;12773;50.162;8.548;2022-12-13T19:05:02;-0.40;99.90
24638;DHT22;12773;50.162;8.548;2022-12-13T19:07:49;-0.30;99.90
24638;DHT22;12773;50.162;8.548;2022-12-13T19:10:36;-0.40;99.90
24638;DHT22;12773;50.162;8.548;2022-12-13T19:13:24;-0.30;99.90
24638;DHT22;12773;50.162;8.548;2022-12-13T19:16:14;-0.40;99.90
24638;DHT22;12773;50.162;8.548;2022-12-13T19:19:02;-0.40;99.90
24638;DHT22;12773;50.162;8.548;2022-12-13T19:21:51;-0.40;99.90
24638;DHT22;12773;50.162;8.548;2022-12-13T19:24:39;-0.40;99.90
24638;DHT22;12773;50.162;8.548;2022-12-13T19:27:26;-0.30;99.90
24638;DHT22;12773;50.162;8.548;2022-12-13T19:30:14;-0.30;99.90